createdAt,value
2023-04-16T00:00:06.433Z,97944.94
2023-04-16T00:02:41.576Z,97943.19
2023-04-16T00:05:12.151Z,97941.19
2023-04-16T00:07:42.369Z,97944.50
2023-04-16T00:10:15.301Z,97948.59
2023-04-16T00:12:46.047Z,97939.25
2023-04-16T00:15:16.557Z,97943.09
2023-04-16T00:17:46.954Z,97948.59
2023-04-16T00:20:17.318Z,97944.06
2023-04-16T00:22:47.700Z,97952.25
2023-04-16T00:25:20.549Z,97954.00
2023-04-16T00:27:50.904Z,97945.78
2023-04-16T00:30:21.215Z,97950.34
2023-04-16T00:32:51.547Z,97950.69
2023-04-16T00:35:22.012Z,97946.25
2023-04-16T00:37:52.370Z,97950.69
2023-04-16T00:40:25.270Z,97950.34
2023-04-16T00:42:55.661Z,97956.38
2023-04-16T00:45:26.747Z,97964.75
2023-04-16T00:47:59.244Z,97950.50
2023-04-16T00:50:30.768Z,97952.25
2023-04-16T00:53:01.167Z,97953.56
2023-04-16T00:55:34.073Z,97953.22
2023-04-16T00:58:04.332Z,97957.66
2023-04-16T01:00:34.810Z,97952.25
2023-04-16T01:03:05.330Z,97963.34
2023-04-16T01:05:35.765Z,97952.44
2023-04-16T01:08:06.308Z,97959.84
2023-04-16T01:10:39.225Z,97951.31
2023-04-16T01:13:09.458Z,97958.72
2023-04-16T01:15:39.807Z,97951.31
2023-04-16T01:18:16.329Z,97957.66
2023-04-16T01:20:49.601Z,97954.78
2023-04-16T01:23:21.608Z,97964.22
2023-04-16T01:25:51.850Z,97964.91
2023-04-16T01:28:22.424Z,97968.56
2023-04-16T01:30:52.691Z,97972.84
2023-04-16T01:33:36.502Z,97967.78
2023-04-16T01:36:09.806Z,97969.97
2023-04-16T01:38:40.059Z,97971.91
2023-04-16T01:41:10.297Z,97971.09
2023-04-16T01:43:41.427Z,97982.03
2023-04-16T01:46:15.093Z,97976.97
2023-04-16T01:48:45.784Z,97978.09
2023-04-16T01:51:18.610Z,97982.03
2023-04-16T01:53:48.895Z,97976.97
2023-04-16T01:56:19.196Z,97972.84
2023-04-16T01:58:49.946Z,97971.91
2023-04-16T02:01:22.008Z,97978.53
2023-04-16T02:03:52.830Z,97976.78
2023-04-16T02:06:27.534Z,97973.63
2023-04-16T02:08:57.866Z,97971.91
2023-04-16T02:11:29.245Z,97973.03
2023-04-16T02:13:59.774Z,97971.09
2023-04-16T02:16:30.318Z,97972.22
2023-04-16T02:19:08.118Z,97969.19
2023-04-16T02:21:42.975Z,97966.50
2023-04-16T02:24:13.312Z,97978.22
2023-04-16T02:26:45.236Z,97966.63
2023-04-16T02:29:19.912Z,97970.91
2023-04-16T02:31:56.472Z,97975.97
2023-04-16T02:34:27.212Z,97977.25
2023-04-16T02:37:01.203Z,97979.31
2023-04-16T02:39:31.670Z,97973.28
2023-04-16T02:42:02.887Z,97979.16
2023-04-16T02:44:33.358Z,97979.31
2023-04-16T02:47:03.636Z,97989.63
2023-04-16T02:49:34.011Z,97995.47
2023-04-16T02:52:07.113Z,97984.84
2023-04-16T02:54:37.343Z,97987.22
2023-04-16T02:57:15.288Z,97983.28
2023-04-16T02:59:45.655Z,97989.31
2023-04-16T03:02:16.433Z,97981.84
2023-04-16T03:04:46.849Z,97979.31
2023-04-16T03:07:19.772Z,97987.38
2023-04-16T03:09:50.037Z,97987.09
2023-04-16T03:12:20.351Z,97985.16
2023-04-16T03:14:50.590Z,97985.34
2023-04-16T03:17:21.061Z,97988.38
2023-04-16T03:19:51.421Z,97987.09
2023-04-16T03:22:25.679Z,97985.69
2023-04-16T03:24:56.089Z,97994.69
2023-04-16T03:27:26.329Z,97993.41
2023-04-16T03:29:56.672Z,97997.00
2023-04-16T03:32:27.181Z,97996.38
2023-04-16T03:34:57.608Z,98005.56
2023-04-16T03:37:30.894Z,97997.53
2023-04-16T03:40:01.717Z,98003.88
2023-04-16T03:42:32.315Z,98002.59
2023-04-16T03:45:02.622Z,98004.66
2023-04-16T03:47:33.256Z,98005.94
2023-04-16T03:50:06.398Z,98005.31
2023-04-16T03:52:39.361Z,98007.66
2023-04-16T03:55:10.481Z,98008.81
2023-04-16T03:57:40.739Z,98007.22
2023-04-16T04:00:15.208Z,98010.19
2023-04-16T04:02:55.096Z,98009.91
2023-04-16T04:05:26.316Z,98012.13
2023-04-16T04:07:59.143Z,98012.44
2023-04-16T04:10:29.370Z,98009.75
2023-04-16T04:12:59.591Z,98018.59
2023-04-16T04:15:29.885Z,98020.84
2023-04-16T04:18:00.541Z,98012.78
2023-04-16T04:20:30.897Z,98015.00
2023-04-16T04:23:04.386Z,98017.84
2023-04-16T04:25:34.671Z,98021.00
2023-04-16T04:28:04.912Z,98018.78
2023-04-16T04:30:35.929Z,98022.09
2023-04-16T04:33:07.286Z,98029.56
2023-04-16T04:35:37.954Z,98033.97
2023-04-16T04:38:10.945Z,98026.38
2023-04-16T04:40:41.220Z,98031.63
2023-04-16T04:43:12.104Z,98027.34
2023-04-16T04:45:42.731Z,98037.47
2023-04-16T04:48:13.021Z,98031.31
2023-04-16T04:50:43.546Z,98033.84
2023-04-16T04:53:16.418Z,98038.13
2023-04-16T04:55:47.257Z,98043.63
2023-04-16T04:58:18.298Z,98046.78
2023-04-16T05:00:49.240Z,98049.81
2023-04-16T05:03:22.562Z,98051.53
2023-04-16T05:05:53.034Z,98058.97
2023-04-16T05:08:25.922Z,98061.03
2023-04-16T05:10:56.159Z,98062.94
2023-04-16T05:13:26.540Z,98075.75
2023-04-16T05:15:56.757Z,98072.28
2023-04-16T05:18:27.052Z,98075.13
2023-04-16T05:20:57.306Z,98080.00
2023-04-16T05:23:30.198Z,98083.19
2023-04-16T05:26:00.484Z,98086.81
2023-04-16T05:28:30.870Z,98089.66
2023-04-16T05:31:01.126Z,98091.41
2023-04-16T05:33:31.374Z,98088.56
2023-04-16T05:36:01.615Z,98094.41
2023-04-16T05:38:34.412Z,98096.34
2023-04-16T05:41:04.657Z,98103.28
2023-04-16T05:43:34.870Z,98099.16
2023-04-16T05:46:05.389Z,98100.75
2023-04-16T05:48:35.793Z,98104.06
2023-04-16T05:51:06.303Z,98100.28
2023-04-16T05:53:39.274Z,98109.28
2023-04-16T05:56:10.169Z,98112.13
2023-04-16T05:58:40.457Z,98107.06
2023-04-16T06:01:10.694Z,98117.19
2023-04-16T06:03:41.016Z,98114.66
2023-04-16T06:06:11.778Z,98122.41
2023-04-16T06:08:48.060Z,98117.19
2023-04-16T06:11:18.692Z,98114.31
2023-04-16T06:13:48.978Z,98115.59
2023-04-16T06:16:19.680Z,98120.81
2023-04-16T06:18:50.183Z,98128.09
2023-04-16T06:21:20.506Z,98126.63
2023-04-16T06:23:53.406Z,98128.22
2023-04-16T06:26:23.670Z,98131.56
2023-04-16T06:28:53.901Z,98126.03
2023-04-16T06:31:24.291Z,98124.13
2023-04-16T06:33:54.557Z,98126.66
2023-04-16T06:36:24.925Z,98128.88
2023-04-16T06:38:57.829Z,98136.94
2023-04-16T06:41:28.872Z,98125.41
2023-04-16T06:44:00.379Z,98128.72
2023-04-16T06:46:30.676Z,98126.19
2023-04-16T06:49:00.959Z,98139.63
2023-04-16T06:51:31.201Z,98131.38
2023-04-16T06:54:03.993Z,98133.91
2023-04-16T06:56:35.891Z,98137.72
2023-04-16T06:59:06.389Z,98140.69
2023-04-16T07:01:36.700Z,98139.28
2023-04-16T07:04:08.914Z,98144.31
2023-04-16T07:06:39.278Z,98141.63
2023-04-16T07:09:12.433Z,98149.06
2023-04-16T07:11:43.028Z,98146.41
2023-04-16T07:14:13.539Z,98149.38
2023-04-16T07:16:43.841Z,98153.22
2023-04-16T07:19:14.278Z,98156.97
2023-04-16T07:21:44.865Z,98151.13
2023-04-16T07:24:17.774Z,98159.03
2023-04-16T07:26:48.028Z,98155.38
2023-04-16T07:29:18.300Z,98158.56
2023-04-16T07:31:48.742Z,98162.19
2023-04-16T07:34:19.135Z,98163.78
2023-04-16T07:36:49.446Z,98168.53
2023-04-16T07:39:22.368Z,98170.91
2023-04-16T07:41:52.659Z,98171.69
2023-04-16T07:44:23.211Z,98176.91
2023-04-16T07:46:53.640Z,98172.16
2023-04-16T07:49:23.986Z,98176.13
2023-04-16T07:51:54.255Z,98187.06
2023-04-16T07:54:28.964Z,98180.41
2023-04-16T07:56:59.478Z,98181.03
2023-04-16T07:59:30.079Z,98183.19
2023-04-16T08:02:00.606Z,98186.88
2023-04-16T08:04:31.060Z,98181.81
2023-04-16T08:07:01.517Z,98184.69
2023-04-16T08:09:35.042Z,98187.97
2023-04-16T08:12:05.557Z,98194.28
2023-04-16T08:14:35.814Z,98200.00
2023-04-16T08:17:06.327Z,98205.03
2023-04-16T08:19:36.944Z,98207.25
2023-04-16T08:22:07.228Z,98206.78
2023-04-16T08:24:40.072Z,98218.97
2023-04-16T08:27:18.637Z,98214.56
2023-04-16T08:29:49.879Z,98220.09
2023-04-16T08:32:20.291Z,98229.75
2023-04-16T08:34:50.676Z,98227.19
2023-04-16T08:37:21.041Z,98228.31
2023-04-16T08:39:53.856Z,98228.78
2023-04-16T08:42:26.665Z,98227.97
2023-04-16T08:45:02.944Z,98229.22
2023-04-16T08:47:37.242Z,98233.19
2023-04-16T08:50:08.065Z,98231.59
2023-04-16T08:52:40.794Z,98237.34
2023-04-16T08:55:15.301Z,98237.34
2023-04-16T08:57:50.046Z,98238.84
2023-04-16T09:00:20.984Z,98236.28
2023-04-16T09:02:52.402Z,98249.00
2023-04-16T09:05:25.911Z,98248.81
2023-04-16T09:07:56.548Z,98244.19
2023-04-16T09:10:29.901Z,98248.91
2023-04-16T09:13:00.281Z,98252.00
2023-04-16T09:15:30.534Z,98251.81
2023-04-16T09:18:00.794Z,98256.78
2023-04-16T09:20:31.072Z,98259.81
2023-04-16T09:23:01.475Z,98262.31
2023-04-16T09:25:35.955Z,98263.72
2023-04-16T09:28:06.406Z,98257.16
2023-04-16T09:30:37.337Z,98266.84
2023-04-16T09:33:17.587Z,98272.22
2023-04-16T09:35:48.608Z,98273.88
2023-04-16T09:38:19.415Z,98262.53
2023-04-16T09:41:08.458Z,98272.84
2023-04-16T09:43:39.656Z,98276.44
2023-04-16T09:46:10.002Z,98273.44
2023-04-16T09:48:40.545Z,98279.63
2023-04-16T09:51:10.916Z,98276.25
2023-04-16T09:53:41.345Z,98271.19
2023-04-16T09:56:14.956Z,98284.31
2023-04-16T09:58:46.185Z,98283.16
2023-04-16T10:01:17.414Z,98275.41
2023-04-16T10:03:52.515Z,98283.41
2023-04-16T10:06:23.721Z,98293.91
2023-04-16T10:08:57.284Z,98286.69
2023-04-16T10:11:30.298Z,98291.38
2023-04-16T10:14:00.829Z,98290.44
2023-04-16T10:16:32.201Z,98289.91
2023-04-16T10:19:02.640Z,98300.22
2023-04-16T10:21:34.446Z,98300.44
2023-04-16T10:24:05.715Z,98296.84
2023-04-16T10:26:38.950Z,98303.91
2023-04-16T10:29:10.391Z,98299.75
2023-04-16T10:31:41.806Z,98301.63
2023-04-16T10:34:12.343Z,98294.63
2023-04-16T10:36:42.831Z,98299.41
2023-04-16T10:39:17.002Z,98304.31
2023-04-16T10:41:50.317Z,98304.22
2023-04-16T10:44:21.775Z,98308.09
2023-04-16T10:46:54.814Z,98300.50
2023-04-16T10:49:26.553Z,98309.75
2023-04-16T10:51:58.194Z,98314.13
2023-04-16T10:54:29.745Z,98311.72
2023-04-16T10:57:06.185Z,98304.78
2023-04-16T10:59:38.047Z,98312.38
2023-04-16T11:02:10.613Z,98306.72
2023-04-16T11:04:41.635Z,98314.16
2023-04-16T11:07:17.819Z,98308.13
2023-04-16T11:09:49.949Z,98309.53
2023-04-16T11:12:23.293Z,98317.78
2023-04-16T11:14:54.201Z,98320.31
2023-04-16T11:17:24.558Z,98314.53
2023-04-16T11:19:54.891Z,98313.28
2023-04-16T11:22:25.305Z,98311.81
2023-04-16T11:24:59.590Z,98315.56
2023-04-16T11:27:33.219Z,98317.03
2023-04-16T11:30:04.521Z,98317.06
2023-04-16T11:32:35.818Z,98320.78
2023-04-16T11:35:07.395Z,98319.78
2023-04-16T11:37:38.811Z,98313.34
2023-04-16T11:40:10.478Z,98320.34
2023-04-16T11:42:44.518Z,98322.78
2023-04-16T11:45:15.103Z,98324.63
2023-04-16T11:47:46.333Z,98325.31
2023-04-16T11:50:20.574Z,98330.44
2023-04-16T11:52:51.522Z,98325.41
2023-04-16T11:55:21.987Z,98322.13
2023-04-16T11:57:54.839Z,98328.75
2023-04-16T12:00:25.134Z,98322.41
2023-04-16T12:02:56.227Z,98319.72
2023-04-16T12:05:31.397Z,98331.16
2023-04-16T12:08:02.274Z,98326.63
2023-04-16T12:10:35.110Z,98330.91
2023-04-16T12:13:18.095Z,98330.69
2023-04-16T12:15:49.109Z,98332.22
2023-04-16T12:18:20.435Z,98330.31
2023-04-16T12:20:51.220Z,98328.94
2023-04-16T12:23:28.410Z,98337.28
2023-04-16T12:25:59.832Z,98343.66
2023-04-16T12:28:34.413Z,98336.41
2023-04-16T12:31:05.060Z,98341.19
2023-04-16T12:33:35.665Z,98339.66
2023-04-16T12:36:19.372Z,98343.13
2023-04-16T12:38:49.899Z,98339.22
2023-04-16T12:41:20.231Z,98337.13
2023-04-16T12:43:53.124Z,98337.81
2023-04-16T12:46:23.417Z,98341.81
2023-04-16T12:48:53.659Z,98338.41
2023-04-16T12:51:23.979Z,98333.09
2023-04-16T12:53:54.223Z,98335.63
2023-04-16T12:56:24.490Z,98341.41
2023-04-16T12:58:57.493Z,98331.28
2023-04-16T13:01:27.785Z,98334.75
2023-04-16T13:03:58.187Z,98331.47
2023-04-16T13:06:28.899Z,98330.84
2023-04-16T13:08:59.231Z,98330.63
2023-04-16T13:11:29.486Z,98334.22
2023-04-16T13:14:02.390Z,98333.06
2023-04-16T13:16:33.525Z,98336.06
2023-04-16T13:19:03.833Z,98338.50
2023-04-16T13:21:34.455Z,98336.22
2023-04-16T13:24:04.800Z,98334.53
2023-04-16T13:26:35.194Z,98340.16
2023-04-16T13:29:08.312Z,98331.03
2023-04-16T13:31:38.879Z,98339.03
2023-04-16T13:34:09.185Z,98342.41
2023-04-16T13:36:39.434Z,98338.13
2023-04-16T13:39:11.720Z,98344.31
2023-04-16T13:41:42.251Z,98341.06
2023-04-16T13:44:15.081Z,98335.16
2023-04-16T13:46:47.892Z,98348.06
2023-04-16T13:49:18.259Z,98349.44
2023-04-16T13:51:48.611Z,98341.53
2023-04-16T13:54:18.930Z,98343.38
2023-04-16T13:56:49.323Z,98344.97
2023-04-16T13:59:22.495Z,98340.84
2023-04-16T14:01:52.808Z,98341.81
2023-04-16T14:04:23.672Z,98344.59
2023-04-16T14:06:54.000Z,98340.28
2023-04-16T14:09:24.577Z,98336.53
2023-04-16T14:11:54.839Z,98344.44
2023-04-16T14:14:27.700Z,98343.91
2023-04-16T14:16:58.042Z,98333.41
2023-04-16T14:19:28.464Z,98342.44
2023-04-16T14:21:58.823Z,98336.53
2023-04-16T14:24:29.072Z,98345.72
2023-04-16T14:26:59.341Z,98343.13
2023-04-16T14:29:33.199Z,98339.13
2023-04-16T14:32:03.493Z,98339.81
2023-04-16T14:34:33.843Z,98348.19
2023-04-16T14:37:04.415Z,98339.31
2023-04-16T14:39:34.679Z,98342.16
2023-04-16T14:42:05.022Z,98342.97
2023-04-16T14:44:37.894Z,98338.44
2023-04-16T14:47:08.725Z,98337.31
2023-04-16T14:49:38.950Z,98336.53
2023-04-16T14:52:09.293Z,98346.03
2023-04-16T14:54:39.601Z,98346.31
2023-04-16T14:57:09.905Z,98346.94
2023-04-16T14:59:42.876Z,98341.47
2023-04-16T15:02:13.313Z,98347.91
2023-04-16T15:04:43.611Z,98345.53
2023-04-16T15:07:13.908Z,98347.91
2023-04-16T15:09:44.289Z,98344.06
2023-04-16T15:12:14.582Z,98346.03
2023-04-16T15:14:47.398Z,98351.44
2023-04-16T15:17:17.659Z,98344.66
2023-04-16T15:19:47.939Z,98346.69
2023-04-16T15:22:18.339Z,98339.94
2023-04-16T15:24:48.638Z,98343.41
2023-04-16T15:27:19.858Z,98345.78
2023-04-16T15:29:54.120Z,98347.06
2023-04-16T15:32:24.404Z,98346.47
2023-04-16T15:34:55.539Z,98342.28
2023-04-16T15:37:26.416Z,98348.63
2023-04-16T15:39:56.803Z,98348.94
2023-04-16T15:42:27.251Z,98347.06
2023-04-16T15:45:00.118Z,98356.25
2023-04-16T15:47:30.535Z,98354.47
2023-04-16T15:50:00.846Z,98352.44
2023-04-16T15:52:31.499Z,98360.03
2023-04-16T15:55:04.352Z,98362.91
2023-04-16T15:57:34.867Z,98355.31
2023-04-16T16:00:13.661Z,98350.06
2023-04-16T16:02:44.674Z,98360.09
2023-04-16T16:05:15.684Z,98356.00
2023-04-16T16:07:46.452Z,98357.56
2023-04-16T16:10:17.140Z,98359.50
2023-04-16T16:12:48.297Z,98354.44
2023-04-16T16:15:21.093Z,98362.31
2023-04-16T16:17:53.032Z,98366.59
2023-04-16T16:20:23.693Z,98359.97
2023-04-16T16:22:54.844Z,98368.66
2023-04-16T16:25:25.650Z,98363.75
2023-04-16T16:27:55.903Z,98373.59
2023-04-16T16:30:29.035Z,98369.59
2023-04-16T16:32:59.375Z,98372.13
2023-04-16T16:35:29.697Z,98372.75
2023-04-16T16:38:00.687Z,98370.69
2023-04-16T16:40:31.144Z,98366.28
2023-04-16T16:43:01.482Z,98373.75
2023-04-16T16:45:34.368Z,98374.06
2023-04-16T16:48:04.678Z,98372.81
2023-04-16T16:50:35.299Z,98373.09
2023-04-16T16:53:06.010Z,98377.50
2023-04-16T16:55:36.573Z,98372.63
2023-04-16T16:58:07.008Z,98371.84
2023-04-16T17:00:39.985Z,98374.69
2023-04-16T17:03:10.645Z,98378.03
2023-04-16T17:05:41.106Z,98380.72
2023-04-16T17:08:12.216Z,98377.22
2023-04-16T17:10:43.717Z,98381.50
2023-04-16T17:13:15.307Z,98373.44
2023-04-16T17:15:48.168Z,98376.28
2023-04-16T17:18:21.394Z,98377.38
2023-04-16T17:20:51.696Z,98378.31
2023-04-16T17:23:21.958Z,98386.06
2023-04-16T17:25:52.421Z,98377.94
2023-04-16T17:28:23.354Z,98386.84
2023-04-16T17:30:57.712Z,98378.59
2023-04-16T17:33:28.071Z,98379.56
2023-04-16T17:35:58.376Z,98384.78
2023-04-16T17:38:28.627Z,98384.97
2023-04-16T17:40:59.081Z,98389.88
2023-04-16T17:43:29.429Z,98390.50
2023-04-16T17:46:02.459Z,98396.88
2023-04-16T17:48:32.858Z,98397.22
2023-04-16T17:51:03.176Z,98393.72
2023-04-16T17:53:33.632Z,98395.63
2023-04-16T17:56:03.839Z,98399.56
2023-04-16T17:58:35.473Z,98404.19
2023-04-16T18:01:08.419Z,98403.56
2023-04-16T18:03:38.854Z,98405.94
2023-04-16T18:06:09.289Z,98402.28
2023-04-16T18:08:39.526Z,98408.47
2023-04-16T18:11:10.729Z,98408.63
2023-04-16T18:13:40.955Z,98402.59
2023-04-16T18:16:19.341Z,98409.59
2023-04-16T18:18:49.525Z,98418.34
2023-04-16T18:21:19.737Z,98416.25
2023-04-16T18:23:49.980Z,98420.69
2023-04-16T18:26:22.522Z,98417.03
2023-04-16T18:28:53.155Z,98416.69
2023-04-16T18:31:26.793Z,98425.28
2023-04-16T18:33:58.254Z,98423.22
2023-04-16T18:36:29.031Z,98424.66
2023-04-16T18:39:02.536Z,98432.25
2023-04-16T18:41:33.330Z,98429.41
2023-04-16T18:44:03.896Z,98434.97
2023-04-16T18:46:36.701Z,98430.22
2023-04-16T18:49:07.811Z,98434.97
2023-04-16T18:51:38.023Z,98436.56
2023-04-16T18:54:08.274Z,98441.50
2023-04-16T18:56:38.576Z,98435.63
2023-04-16T18:59:08.909Z,98444.50
2023-04-16T19:01:41.821Z,98440.38
2023-04-16T19:04:12.059Z,98446.06
2023-04-16T19:06:42.333Z,98450.19
2023-04-16T19:09:12.825Z,98447.34
2023-04-16T19:11:43.393Z,98449.09
2023-04-16T19:14:13.583Z,98454.31
2023-04-16T19:16:46.515Z,98452.09
2023-04-16T19:19:16.770Z,98453.34
2023-04-16T19:21:46.993Z,98460.03
2023-04-16T19:24:17.205Z,98457.34
2023-04-16T19:26:47.412Z,98457.19
2023-04-16T19:29:18.220Z,98458.28
2023-04-16T19:31:51.610Z,98461.28
2023-04-16T19:34:22.865Z,98455.59
2023-04-16T19:36:53.772Z,98460.34
2023-04-16T19:39:23.983Z,98468.78
2023-04-16T19:41:54.731Z,98457.34
2023-04-16T19:44:25.450Z,98463.38
2023-04-16T19:46:58.208Z,98465.28
2023-04-16T19:49:35.569Z,98464.34
2023-04-16T19:52:06.022Z,98469.44
2023-04-16T19:54:37.425Z,98471.97
2023-04-16T19:57:07.649Z,98474.00
2023-04-16T19:59:38.437Z,98473.69
2023-04-16T20:02:11.545Z,98468.78
2023-04-16T20:04:41.889Z,98472.09
2023-04-16T20:07:12.090Z,98469.75
2023-04-16T20:09:42.477Z,98472.28
2023-04-16T20:12:12.735Z,98480.50
2023-04-16T20:14:44.002Z,98473.69
2023-04-16T20:17:20.078Z,98480.03
2023-04-16T20:19:51.395Z,98480.34
2023-04-16T20:22:21.645Z,98478.16
2023-04-16T20:24:55.181Z,98471.97
2023-04-16T20:27:25.427Z,98481.47
2023-04-16T20:29:56.151Z,98474.00
2023-04-16T20:32:29.001Z,98482.72
2023-04-16T20:34:59.865Z,98477.03
2023-04-16T20:37:31.400Z,98474.34
2023-04-16T20:40:01.607Z,98471.47
2023-04-16T20:42:32.418Z,98467.69
2023-04-16T20:45:02.594Z,98468.00
2023-04-16T20:47:35.776Z,98468.47
2023-04-16T20:50:06.131Z,98473.41
2023-04-16T20:52:36.637Z,98470.06
2023-04-16T20:55:08.212Z,98469.25
2023-04-16T20:57:38.465Z,98472.13
2023-04-16T21:00:12.161Z,98473.22
2023-04-16T21:02:45.635Z,98469.91
2023-04-16T21:05:16.693Z,98459.44
2023-04-16T21:07:46.902Z,98465.16
2023-04-16T21:10:20.581Z,98458.66
2023-04-16T21:12:51.148Z,98463.06
2023-04-16T21:15:21.483Z,98465.28
2023-04-16T21:17:54.312Z,98460.41
2023-04-16T21:20:24.544Z,98465.16
2023-04-16T21:22:56.965Z,98470.34
2023-04-16T21:25:27.298Z,98467.69
2023-04-16T21:27:57.928Z,98465.13
2023-04-16T21:30:28.110Z,98469.91
2023-04-16T21:33:00.958Z,98472.09
2023-04-16T21:35:31.221Z,98468.31
2023-04-16T21:38:01.458Z,98469.59
2023-04-16T21:40:31.722Z,98473.41
2023-04-16T21:43:01.976Z,98473.88
2023-04-16T21:45:33.060Z,98461.66
2023-04-16T21:48:05.879Z,98470.88
2023-04-16T21:50:36.251Z,98472.13
2023-04-16T21:53:07.229Z,98471.19
2023-04-16T21:55:37.993Z,98461.50
2023-04-16T21:58:08.177Z,98467.69
2023-04-16T22:00:38.407Z,98474.66
2023-04-16T22:03:12.523Z,98464.84
2023-04-16T22:05:43.023Z,98462.47
2023-04-16T22:08:24.110Z,98466.72
2023-04-16T22:10:55.056Z,98461.06
2023-04-16T22:13:26.088Z,98455.19
2023-04-16T22:15:57.865Z,98460.09
2023-04-16T22:18:33.238Z,98456.75
2023-04-16T22:21:04.013Z,98459.44
2023-04-16T22:23:34.227Z,98460.09
2023-04-16T22:26:05.077Z,98458.97
2023-04-16T22:28:35.420Z,98461.38
2023-04-16T22:31:05.720Z,98461.97
2023-04-16T22:33:38.594Z,98452.16
2023-04-16T22:36:09.158Z,98462.94
2023-04-16T22:38:39.848Z,98461.06
2023-04-16T22:41:10.133Z,98455.97
2023-04-16T22:43:40.678Z,98456.31
2023-04-16T22:46:10.917Z,98458.03
2023-04-16T22:48:43.671Z,98454.88
2023-04-16T22:51:14.043Z,98454.38
2023-04-16T22:53:44.240Z,98449.81
2023-04-16T22:56:14.458Z,98452.81
2023-04-16T22:58:44.650Z,98453.13
2023-04-16T23:01:14.937Z,98448.69
2023-04-16T23:03:47.849Z,98448.69
2023-04-16T23:06:18.287Z,98453.28
2023-04-16T23:08:48.533Z,98451.69
2023-04-16T23:11:18.743Z,98453.44
2023-04-16T23:13:48.981Z,98451.69
2023-04-16T23:16:19.194Z,98455.66
2023-04-16T23:18:52.012Z,98456.91
2023-04-16T23:21:23.058Z,98455.34
2023-04-16T23:23:53.400Z,98450.91
2023-04-16T23:26:23.890Z,98458.22
2023-04-16T23:28:54.170Z,98451.56
2023-04-16T23:31:24.534Z,98454.72
2023-04-16T23:33:57.319Z,98449.16
2023-04-16T23:36:27.652Z,98446.16
2023-04-16T23:38:57.855Z,98454.25
2023-04-16T23:41:28.160Z,98448.38
2023-04-16T23:43:58.343Z,98449.63
2023-04-16T23:46:28.596Z,98438.56
2023-04-16T23:49:01.690Z,98445.84
2023-04-16T23:51:32.109Z,98446.00
2023-04-16T23:54:02.280Z,98446.63
2023-04-16T23:56:32.484Z,98445.53
2023-04-16T23:59:03.179Z,98445.22
